sensor_id;sensor_type;location;lat;lon;timestamp;temperature;humidity
52947;DHT22;68773;40.400;17.260;2023-06-22T00:00:55;26.70;69.10
52947;DHT22;68773;40.400;17.260;2023-06-22T00:03:23;26.80;66.90
52947;DHT22;68773;40.400;17.260;2023-06-22T00:05:52;26.80;67.10
52947;DHT22;68773;40.400;17.260;2023-06-22T00:08:18;26.60;67.20
52947;DHT22;68773;40.400;17.260;2023-06-22T00:10:45;26.50;67.50
52947;DHT22;68773;40.400;17.260;2023-06-22T00:13:12;26.50;68.40
52947;DHT22;68773;40.400;17.260;2023-06-22T00:15:39;26.30;68.70
52947;DHT22;68773;40.400;17.260;2023-06-22T00:18:09;26.40;69.60
52947;DHT22;68773;40.400;17.260;2023-06-22T00:20:36;26.40;70.30
52947;DHT22;68773;40.400;17.260;2023-06-22T00:23:06;26.40;70.10
52947;DHT22;68773;40.400;17.260;2023-06-22T00:25:38;26.30;70.20
52947;DHT22;68773;40.400;17.260;2023-06-22T00:28:07;26.20;70.80
52947;DHT22;68773;40.400;17.260;2023-06-22T00:30:34;26.20;71.00
52947;DHT22;68773;40.400;17.260;2023-06-22T00:33:00;26.20;71.10
52947;DHT22;68773;40.400;17.260;2023-06-22T00:35:27;26.20;71.20
52947;DHT22;68773;40.400;17.260;2023-06-22T00:37:58;26.10;71.10
52947;DHT22;68773;40.400;17.260;2023-06-22T00:40:28;26.10;71.10
52947;DHT22;68773;40.400;17.260;2023-06-22T00:42:54;26.20;71.10
52947;DHT22;68773;40.400;17.260;2023-06-22T00:45:22;26.20;71.00
52947;DHT22;68773;40.400;17.260;2023-06-22T00:47:56;26.10;71.30
52947;DHT22;68773;40.400;17.260;2023-06-22T00:50:23;26.00;71.20
52947;DHT22;68773;40.400;17.260;2023-06-22T00:52:56;26.00;71.10
52947;DHT22;68773;40.400;17.260;2023-06-22T00:55:23;26.00;71.10
52947;DHT22;68773;40.400;17.260;2023-06-22T00:57:49;26.00;71.00
52947;DHT22;68773;40.400;17.260;2023-06-22T01:00:16;26.00;71.20
52947;DHT22;68773;40.400;17.260;2023-06-22T01:02:45;25.90;71.30
52947;DHT22;68773;40.400;17.260;2023-06-22T01:05:13;25.90;71.60
52947;DHT22;68773;40.400;17.260;2023-06-22T01:07:44;25.90;71.80
52947;DHT22;68773;40.400;17.260;2023-06-22T01:10:24;25.90;71.20
52947;DHT22;68773;40.400;17.260;2023-06-22T01:12:53;25.90;70.40
52947;DHT22;68773;40.400;17.260;2023-06-22T01:15:30;25.90;71.10
52947;DHT22;68773;40.400;17.260;2023-06-22T01:17:57;25.90;71.50
52947;DHT22;68773;40.400;17.260;2023-06-22T01:20:25;26.00;72.10
52947;DHT22;68773;40.400;17.260;2023-06-22T01:23:10;25.90;72.10
52947;DHT22;68773;40.400;17.260;2023-06-22T01:28:53;25.80;72.20
52947;DHT22;68773;40.400;17.260;2023-06-22T01:31:23;25.90;72.60
52947;DHT22;68773;40.400;17.260;2023-06-22T01:33:58;25.90;72.80
52947;DHT22;68773;40.400;17.260;2023-06-22T01:36:25;25.90;72.40
52947;DHT22;68773;40.400;17.260;2023-06-22T01:38:52;25.90;72.10
52947;DHT22;68773;40.400;17.260;2023-06-22T01:41:20;25.80;70.70
52947;DHT22;68773;40.400;17.260;2023-06-22T01:43:46;25.70;71.30
52947;DHT22;68773;40.400;17.260;2023-06-22T01:46:14;25.70;71.30
52947;DHT22;68773;40.400;17.260;2023-06-22T01:48:40;25.60;71.40
52947;DHT22;68773;40.400;17.260;2023-06-22T01:51:06;25.50;71.80
52947;DHT22;68773;40.400;17.260;2023-06-22T01:53:32;25.50;72.20
52947;DHT22;68773;40.400;17.260;2023-06-22T01:55:57;25.50;72.20
52947;DHT22;68773;40.400;17.260;2023-06-22T01:58:27;25.50;72.10
52947;DHT22;68773;40.400;17.260;2023-06-22T02:00:58;25.50;72.00
52947;DHT22;68773;40.400;17.260;2023-06-22T02:03:31;25.40;72.30
52947;DHT22;68773;40.400;17.260;2023-06-22T02:06:04;25.40;72.50
52947;DHT22;68773;40.400;17.260;2023-06-22T02:08:35;25.40;72.40
52947;DHT22;68773;40.400;17.260;2023-06-22T02:11:02;25.50;72.00
52947;DHT22;68773;40.400;17.260;2023-06-22T02:13:29;25.50;72.30
52947;DHT22;68773;40.400;17.260;2023-06-22T02:15:56;25.20;72.90
52947;DHT22;68773;40.400;17.260;2023-06-22T02:18:22;25.00;73.20
52947;DHT22;68773;40.400;17.260;2023-06-22T02:20:48;25.00;73.50
52947;DHT22;68773;40.400;17.260;2023-06-22T02:23:13;24.90;74.20
52947;DHT22;68773;40.400;17.260;2023-06-22T02:25:39;24.90;75.00
52947;DHT22;68773;40.400;17.260;2023-06-22T02:28:05;24.90;76.10
52947;DHT22;68773;40.400;17.260;2023-06-22T02:30:31;24.80;77.10
52947;DHT22;68773;40.400;17.260;2023-06-22T02:32:56;24.70;76.90
52947;DHT22;68773;40.400;17.260;2023-06-22T02:35:28;24.70;77.00
52947;DHT22;68773;40.400;17.260;2023-06-22T02:38:02;24.60;77.10
52947;DHT22;68773;40.400;17.260;2023-06-22T02:40:29;24.50;78.10
52947;DHT22;68773;40.400;17.260;2023-06-22T02:42:55;24.40;78.70
52947;DHT22;68773;40.400;17.260;2023-06-22T02:45:23;24.30;79.10
52947;DHT22;68773;40.400;17.260;2023-06-22T02:47:49;24.30;79.10
52947;DHT22;68773;40.400;17.260;2023-06-22T02:50:15;24.50;78.80
52947;DHT22;68773;40.400;17.260;2023-06-22T02:52:40;24.50;79.10
52947;DHT22;68773;40.400;17.260;2023-06-22T02:55:06;24.60;79.00
52947;DHT22;68773;40.400;17.260;2023-06-22T03:00:19;24.60;78.90
52947;DHT22;68773;40.400;17.260;2023-06-22T03:02:47;24.70;78.80
52947;DHT22;68773;40.400;17.260;2023-06-22T03:05:14;24.80;79.00
52947;DHT22;68773;40.400;17.260;2023-06-22T03:07:41;24.80;79.00
52947;DHT22;68773;40.400;17.260;2023-06-22T03:13:19;25.00;78.90
52947;DHT22;68773;40.400;17.260;2023-06-22T03:15:44;25.00;79.30
52947;DHT22;68773;40.400;17.260;2023-06-22T03:18:11;25.00;79.50
52947;DHT22;68773;40.400;17.260;2023-06-22T03:20:40;25.00;79.50
52947;DHT22;68773;40.400;17.260;2023-06-22T03:23:05;25.10;79.90
52947;DHT22;68773;40.400;17.260;2023-06-22T03:25:31;25.10;79.70
52947;DHT22;68773;40.400;17.260;2023-06-22T03:27:57;25.10;79.40
52947;DHT22;68773;40.400;17.260;2023-06-22T03:30:22;25.10;78.90
52947;DHT22;68773;40.400;17.260;2023-06-22T03:32:48;25.10;77.40
52947;DHT22;68773;40.400;17.260;2023-06-22T03:35:14;25.10;75.80
52947;DHT22;68773;40.400;17.260;2023-06-22T03:37:40;25.20;76.40
52947;DHT22;68773;40.400;17.260;2023-06-22T03:40:06;25.20;75.20
52947;DHT22;68773;40.400;17.260;2023-06-22T03:42:33;25.20;73.50
52947;DHT22;68773;40.400;17.260;2023-06-22T03:45:00;25.00;75.10
52947;DHT22;68773;40.400;17.260;2023-06-22T03:47:26;25.20;76.60
52947;DHT22;68773;40.400;17.260;2023-06-22T03:49:52;25.20;76.50
52947;DHT22;68773;40.400;17.260;2023-06-22T03:52:21;25.20;75.90
52947;DHT22;68773;40.400;17.260;2023-06-22T03:54:47;25.10;75.80
52947;DHT22;68773;40.400;17.260;2023-06-22T03:57:13;24.90;78.20
52947;DHT22;68773;40.400;17.260;2023-06-22T03:59:39;25.00;79.40
52947;DHT22;68773;40.400;17.260;2023-06-22T04:02:05;25.10;79.40
52947;DHT22;68773;40.400;17.260;2023-06-22T04:04:30;25.30;79.50
52947;DHT22;68773;40.400;17.260;2023-06-22T04:06:56;25.50;79.80
52947;DHT22;68773;40.400;17.260;2023-06-22T04:09:22;25.40;79.20
52947;DHT22;68773;40.400;17.260;2023-06-22T04:11:48;25.50;78.40
52947;DHT22;68773;40.400;17.260;2023-06-22T04:14:13;25.50;78.10
52947;DHT22;68773;40.400;17.260;2023-06-22T04:16:39;25.50;79.30
52947;DHT22;68773;40.400;17.260;2023-06-22T04:19:05;25.50;80.00
52947;DHT22;68773;40.400;17.260;2023-06-22T04:21:31;25.60;80.30
52947;DHT22;68773;40.400;17.260;2023-06-22T04:23:56;25.60;79.80
52947;DHT22;68773;40.400;17.260;2023-06-22T04:26:22;25.70;80.60
52947;DHT22;68773;40.400;17.260;2023-06-22T04:28:48;25.80;81.90
52947;DHT22;68773;40.400;17.260;2023-06-22T04:31:21;25.90;81.50
52947;DHT22;68773;40.400;17.260;2023-06-22T04:33:47;25.90;81.20
52947;DHT22;68773;40.400;17.260;2023-06-22T04:36:12;26.00;80.70
52947;DHT22;68773;40.400;17.260;2023-06-22T04:38:39;26.00;80.20
52947;DHT22;68773;40.400;17.260;2023-06-22T04:41:05;26.00;79.60
52947;DHT22;68773;40.400;17.260;2023-06-22T04:43:33;26.00;79.40
52947;DHT22;68773;40.400;17.260;2023-06-22T04:45:59;26.00;78.90
52947;DHT22;68773;40.400;17.260;2023-06-22T04:48:29;26.00;78.20
52947;DHT22;68773;40.400;17.260;2023-06-22T04:50:59;25.90;77.70
52947;DHT22;68773;40.400;17.260;2023-06-22T04:53:29;25.80;78.30
52947;DHT22;68773;40.400;17.260;2023-06-22T04:55:55;25.80;78.20
52947;DHT22;68773;40.400;17.260;2023-06-22T04:58:21;25.50;78.60
52947;DHT22;68773;40.400;17.260;2023-06-22T05:00:47;25.50;78.90
52947;DHT22;68773;40.400;17.260;2023-06-22T05:03:13;25.60;78.60
52947;DHT22;68773;40.400;17.260;2023-06-22T05:05:38;25.60;78.50
52947;DHT22;68773;40.400;17.260;2023-06-22T05:08:04;25.70;78.60
52947;DHT22;68773;40.400;17.260;2023-06-22T05:10:32;25.70;77.90
52947;DHT22;68773;40.400;17.260;2023-06-22T05:12:58;25.70;77.60
52947;DHT22;68773;40.400;17.260;2023-06-22T05:15:24;25.80;77.20
52947;DHT22;68773;40.400;17.260;2023-06-22T05:17:53;25.80;77.00
52947;DHT22;68773;40.400;17.260;2023-06-22T05:20:19;25.90;76.40
52947;DHT22;68773;40.400;17.260;2023-06-22T05:22:48;26.00;75.90
52947;DHT22;68773;40.400;17.260;2023-06-22T05:25:13;26.00;75.80
52947;DHT22;68773;40.400;17.260;2023-06-22T05:27:39;26.10;76.30
52947;DHT22;68773;40.400;17.260;2023-06-22T05:30:09;26.20;77.50
52947;DHT22;68773;40.400;17.260;2023-06-22T05:32:35;26.30;78.50
52947;DHT22;68773;40.400;17.260;2023-06-22T05:35:02;26.30;78.40
52947;DHT22;68773;40.400;17.260;2023-06-22T05:37:29;26.40;79.20
52947;DHT22;68773;40.400;17.260;2023-06-22T05:39:54;26.40;79.30
52947;DHT22;68773;40.400;17.260;2023-06-22T05:42:21;26.30;79.80
52947;DHT22;68773;40.400;17.260;2023-06-22T05:44:47;26.30;80.10
52947;DHT22;68773;40.400;17.260;2023-06-22T05:47:13;26.20;79.20
52947;DHT22;68773;40.400;17.260;2023-06-22T05:49:38;26.20;78.80
52947;DHT22;68773;40.400;17.260;2023-06-22T05:52:04;26.20;79.10
52947;DHT22;68773;40.400;17.260;2023-06-22T05:54:30;26.10;79.80
52947;DHT22;68773;40.400;17.260;2023-06-22T05:56:56;26.10;79.30
52947;DHT22;68773;40.400;17.260;2023-06-22T05:59:22;26.10;77.30
52947;DHT22;68773;40.400;17.260;2023-06-22T06:01:50;26.10;75.50
52947;DHT22;68773;40.400;17.260;2023-06-22T06:04:19;26.10;75.40
52947;DHT22;68773;40.400;17.260;2023-06-22T06:06:45;26.10;74.80
52947;DHT22;68773;40.400;17.260;2023-06-22T06:09:16;26.20;74.90
52947;DHT22;68773;40.400;17.260;2023-06-22T06:11:42;26.30;72.90
52947;DHT22;68773;40.400;17.260;2023-06-22T06:14:07;26.40;73.10
52947;DHT22;68773;40.400;17.260;2023-06-22T06:16:33;26.50;72.30
52947;DHT22;68773;40.400;17.260;2023-06-22T06:18:59;26.50;72.00
52947;DHT22;68773;40.400;17.260;2023-06-22T06:21:25;26.70;71.40
52947;DHT22;68773;40.400;17.260;2023-06-22T06:23:50;26.70;70.20
52947;DHT22;68773;40.400;17.260;2023-06-22T06:26:16;26.90;70.30
52947;DHT22;68773;40.400;17.260;2023-06-22T06:28:43;26.80;73.60
52947;DHT22;68773;40.400;17.260;2023-06-22T06:31:09;27.10;76.40
52947;DHT22;68773;40.400;17.260;2023-06-22T06:33:35;27.10;76.30
52947;DHT22;68773;40.400;17.260;2023-06-22T06:36:01;27.10;76.30
52947;DHT22;68773;40.400;17.260;2023-06-22T06:38:29;27.10;76.70
52947;DHT22;68773;40.400;17.260;2023-06-22T06:40:55;27.20;78.10
52947;DHT22;68773;40.400;17.260;2023-06-22T06:43:21;27.10;78.70
52947;DHT22;68773;40.400;17.260;2023-06-22T06:45:48;27.10;78.60
52947;DHT22;68773;40.400;17.260;2023-06-22T06:48:13;27.00;79.40
52947;DHT22;68773;40.400;17.260;2023-06-22T06:50:39;27.00;79.10
52947;DHT22;68773;40.400;17.260;2023-06-22T06:53:05;26.90;79.40
52947;DHT22;68773;40.400;17.260;2023-06-22T06:55:31;26.80;78.90
52947;DHT22;68773;40.400;17.260;2023-06-22T06:57:58;26.70;78.50
52947;DHT22;68773;40.400;17.260;2023-06-22T07:00:25;26.60;74.80
52947;DHT22;68773;40.400;17.260;2023-06-22T07:02:51;26.50;74.60
52947;DHT22;68773;40.400;17.260;2023-06-22T07:05:17;26.50;73.40
52947;DHT22;68773;40.400;17.260;2023-06-22T07:07:43;26.50;74.90
52947;DHT22;68773;40.400;17.260;2023-06-22T07:10:09;26.50;74.90
52947;DHT22;68773;40.400;17.260;2023-06-22T07:12:35;26.50;73.80
52947;DHT22;68773;40.400;17.260;2023-06-22T07:15:06;26.50;72.50
52947;DHT22;68773;40.400;17.260;2023-06-22T07:17:35;26.60;72.00
52947;DHT22;68773;40.400;17.260;2023-06-22T07:20:02;26.70;71.40
52947;DHT22;68773;40.400;17.260;2023-06-22T07:22:33;26.80;71.50
52947;DHT22;68773;40.400;17.260;2023-06-22T07:24:58;26.90;71.50
52947;DHT22;68773;40.400;17.260;2023-06-22T07:27:24;26.90;72.30
52947;DHT22;68773;40.400;17.260;2023-06-22T07:29:50;27.00;72.90
52947;DHT22;68773;40.400;17.260;2023-06-22T07:32:16;27.10;72.10
52947;DHT22;68773;40.400;17.260;2023-06-22T07:34:42;27.20;72.00
52947;DHT22;68773;40.400;17.260;2023-06-22T07:37:08;27.20;71.90
52947;DHT22;68773;40.400;17.260;2023-06-22T07:39:33;27.30;71.30
52947;DHT22;68773;40.400;17.260;2023-06-22T07:42:00;27.50;68.40
52947;DHT22;68773;40.400;17.260;2023-06-22T07:44:25;27.70;70.50
52947;DHT22;68773;40.400;17.260;2023-06-22T07:46:51;27.90;71.00
52947;DHT22;68773;40.400;17.260;2023-06-22T07:49:17;27.90;72.20
52947;DHT22;68773;40.400;17.260;2023-06-22T07:51:43;27.80;73.10
52947;DHT22;68773;40.400;17.260;2023-06-22T07:54:09;27.70;76.40
52947;DHT22;68773;40.400;17.260;2023-06-22T07:56:36;27.50;80.00
52947;DHT22;68773;40.400;17.260;2023-06-22T07:59:02;27.40;80.20
52947;DHT22;68773;40.400;17.260;2023-06-22T08:01:29;27.30;80.40
52947;DHT22;68773;40.400;17.260;2023-06-22T08:03:55;27.30;77.70
52947;DHT22;68773;40.400;17.260;2023-06-22T08:06:20;27.30;76.90
52947;DHT22;68773;40.400;17.260;2023-06-22T08:08:46;27.40;74.90
52947;DHT22;68773;40.400;17.260;2023-06-22T08:11:14;27.40;75.00
52947;DHT22;68773;40.400;17.260;2023-06-22T08:13:40;27.50;72.40
52947;DHT22;68773;40.400;17.260;2023-06-22T08:16:05;27.60;64.80
52947;DHT22;68773;40.400;17.260;2023-06-22T08:18:32;27.70;64.30
52947;DHT22;68773;40.400;17.260;2023-06-22T08:20:58;27.80;60.50
52947;DHT22;68773;40.400;17.260;2023-06-22T08:23:24;27.90;60.80
52947;DHT22;68773;40.400;17.260;2023-06-22T08:25:49;28.10;61.30
52947;DHT22;68773;40.400;17.260;2023-06-22T08:28:16;28.20;66.10
52947;DHT22;68773;40.400;17.260;2023-06-22T08:30:42;28.30;69.20
52947;DHT22;68773;40.400;17.260;2023-06-22T08:33:07;28.30;67.60
52947;DHT22;68773;40.400;17.260;2023-06-22T08:35:33;28.30;67.80
52947;DHT22;68773;40.400;17.260;2023-06-22T08:37:58;28.30;73.00
52947;DHT22;68773;40.400;17.260;2023-06-22T08:40:25;28.10;75.40
52947;DHT22;68773;40.400;17.260;2023-06-22T08:42:51;28.00;75.40
52947;DHT22;68773;40.400;17.260;2023-06-22T08:45:17;27.90;77.00
52947;DHT22;68773;40.400;17.260;2023-06-22T08:47:43;27.90;78.60
52947;DHT22;68773;40.400;17.260;2023-06-22T08:50:09;27.90;77.10
52947;DHT22;68773;40.400;17.260;2023-06-22T08:52:36;28.00;77.60
52947;DHT22;68773;40.400;17.260;2023-06-22T08:55:03;28.10;78.20
52947;DHT22;68773;40.400;17.260;2023-06-22T08:57:29;28.10;78.40
52947;DHT22;68773;40.400;17.260;2023-06-22T08:59:56;28.00;77.50
52947;DHT22;68773;40.400;17.260;2023-06-22T09:02:24;28.00;77.90
52947;DHT22;68773;40.400;17.260;2023-06-22T09:04:50;28.10;77.00
52947;DHT22;68773;40.400;17.260;2023-06-22T09:07:24;28.10;76.20
52947;DHT22;68773;40.400;17.260;2023-06-22T09:09:50;28.00;77.00
52947;DHT22;68773;40.400;17.260;2023-06-22T09:12:20;28.20;75.60
52947;DHT22;68773;40.400;17.260;2023-06-22T09:14:48;28.20;76.10
52947;DHT22;68773;40.400;17.260;2023-06-22T09:17:14;28.40;76.20
52947;DHT22;68773;40.400;17.260;2023-06-22T09:19:40;28.50;74.00
52947;DHT22;68773;40.400;17.260;2023-06-22T09:22:05;28.60;75.90
52947;DHT22;68773;40.400;17.260;2023-06-22T09:24:32;28.70;75.40
52947;DHT22;68773;40.400;17.260;2023-06-22T09:26:58;28.80;76.90
52947;DHT22;68773;40.400;17.260;2023-06-22T09:29:24;28.80;77.00
52947;DHT22;68773;40.400;17.260;2023-06-22T09:31:50;28.90;72.90
52947;DHT22;68773;40.400;17.260;2023-06-22T09:34:16;28.90;73.20
52947;DHT22;68773;40.400;17.260;2023-06-22T09:36:46;29.00;66.50
52947;DHT22;68773;40.400;17.260;2023-06-22T09:39:11;29.20;68.90
52947;DHT22;68773;40.400;17.260;2023-06-22T09:41:37;29.30;73.50
52947;DHT22;68773;40.400;17.260;2023-06-22T09:44:03;29.20;74.50
52947;DHT22;68773;40.400;17.260;2023-06-22T09:46:28;29.20;73.40
52947;DHT22;68773;40.400;17.260;2023-06-22T09:48:54;29.10;76.40
52947;DHT22;68773;40.400;17.260;2023-06-22T09:51:20;29.30;74.50
52947;DHT22;68773;40.400;17.260;2023-06-22T09:53:47;29.40;70.20
52947;DHT22;68773;40.400;17.260;2023-06-22T09:56:13;29.50;72.10
52947;DHT22;68773;40.400;17.260;2023-06-22T09:58:43;29.60;74.10
52947;DHT22;68773;40.400;17.260;2023-06-22T10:04:27;30.00;69.70
52947;DHT22;68773;40.400;17.260;2023-06-22T10:06:53;30.10;67.40
52947;DHT22;68773;40.400;17.260;2023-06-22T10:09:19;30.10;61.80
52947;DHT22;68773;40.400;17.260;2023-06-22T10:11:44;30.00;53.10
52947;DHT22;68773;40.400;17.260;2023-06-22T10:14:10;30.10;67.00
52947;DHT22;68773;40.400;17.260;2023-06-22T10:16:36;30.10;62.80
52947;DHT22;68773;40.400;17.260;2023-06-22T10:19:02;30.10;64.20
52947;DHT22;68773;40.400;17.260;2023-06-22T10:21:28;30.00;65.30
52947;DHT22;68773;40.400;17.260;2023-06-22T10:23:54;30.10;62.80
52947;DHT22;68773;40.400;17.260;2023-06-22T10:26:20;30.10;72.60
52947;DHT22;68773;40.400;17.260;2023-06-22T10:28:46;30.20;67.50
52947;DHT22;68773;40.400;17.260;2023-06-22T10:31:12;30.20;66.90
52947;DHT22;68773;40.400;17.260;2023-06-22T10:33:37;30.20;66.10
52947;DHT22;68773;40.400;17.260;2023-06-22T10:36:03;30.10;74.50
52947;DHT22;68773;40.400;17.260;2023-06-22T10:38:30;30.10;74.70
52947;DHT22;68773;40.400;17.260;2023-06-22T10:40:55;30.00;79.00
52947;DHT22;68773;40.400;17.260;2023-06-22T10:43:21;30.00;74.10
52947;DHT22;68773;40.400;17.260;2023-06-22T10:45:47;30.10;77.50
52947;DHT22;68773;40.400;17.260;2023-06-22T10:48:13;30.30;74.00
52947;DHT22;68773;40.400;17.260;2023-06-22T10:50:38;30.30;68.40
52947;DHT22;68773;40.400;17.260;2023-06-22T10:53:04;30.50;67.10
52947;DHT22;68773;40.400;17.260;2023-06-22T10:55:30;30.60;68.60
52947;DHT22;68773;40.400;17.260;2023-06-22T10:57:55;30.50;69.50
52947;DHT22;68773;40.400;17.260;2023-06-22T11:00:21;30.40;72.50
52947;DHT22;68773;40.400;17.260;2023-06-22T11:02:47;30.40;75.30
52947;DHT22;68773;40.400;17.260;2023-06-22T11:05:12;30.30;76.00
52947;DHT22;68773;40.400;17.260;2023-06-22T11:07:42;30.40;75.90
52947;DHT22;68773;40.400;17.260;2023-06-22T11:10:09;30.40;75.40
52947;DHT22;68773;40.400;17.260;2023-06-22T11:12:35;30.70;72.10
52947;DHT22;68773;40.400;17.260;2023-06-22T11:15:01;31.10;70.80
52947;DHT22;68773;40.400;17.260;2023-06-22T11:17:27;31.40;66.50
52947;DHT22;68773;40.400;17.260;2023-06-22T11:19:52;31.60;65.80
52947;DHT22;68773;40.400;17.260;2023-06-22T11:22:18;31.60;66.90
52947;DHT22;68773;40.400;17.260;2023-06-22T11:24:44;31.70;67.60
52947;DHT22;68773;40.400;17.260;2023-06-22T11:27:09;31.70;64.10
52947;DHT22;68773;40.400;17.260;2023-06-22T11:29:35;31.80;66.40
52947;DHT22;68773;40.400;17.260;2023-06-22T11:32:01;31.80;65.10
52947;DHT22;68773;40.400;17.260;2023-06-22T11:34:27;32.00;64.00
52947;DHT22;68773;40.400;17.260;2023-06-22T11:36:53;32.20;64.50
52947;DHT22;68773;40.400;17.260;2023-06-22T11:39:19;32.30;65.50
52947;DHT22;68773;40.400;17.260;2023-06-22T11:41:45;32.20;68.10
52947;DHT22;68773;40.400;17.260;2023-06-22T11:44:11;32.20;68.90
52947;DHT22;68773;40.400;17.260;2023-06-22T11:46:37;31.90;69.80
52947;DHT22;68773;40.400;17.260;2023-06-22T11:49:02;31.80;71.70
52947;DHT22;68773;40.400;17.260;2023-06-22T11:51:28;31.80;70.50
52947;DHT22;68773;40.400;17.260;2023-06-22T11:53:56;31.80;70.00
52947;DHT22;68773;40.400;17.260;2023-06-22T11:56:22;31.90;71.60
52947;DHT22;68773;40.400;17.260;2023-06-22T11:58:48;32.30;71.90
52947;DHT22;68773;40.400;17.260;2023-06-22T12:01:14;32.30;70.50
52947;DHT22;68773;40.400;17.260;2023-06-22T12:03:40;32.40;69.20
52947;DHT22;68773;40.400;17.260;2023-06-22T12:06:08;32.40;70.60
52947;DHT22;68773;40.400;17.260;2023-06-22T12:08:34;32.60;72.00
52947;DHT22;68773;40.400;17.260;2023-06-22T12:14:19;32.30;71.50
52947;DHT22;68773;40.400;17.260;2023-06-22T12:16:44;32.30;74.20
52947;DHT22;68773;40.400;17.260;2023-06-22T12:19:11;32.20;75.20
52947;DHT22;68773;40.400;17.260;2023-06-22T12:21:37;32.10;75.90
52947;DHT22;68773;40.400;17.260;2023-06-22T12:24:03;32.00;75.70
52947;DHT22;68773;40.400;17.260;2023-06-22T12:26:29;32.00;74.80
52947;DHT22;68773;40.400;17.260;2023-06-22T12:28:55;32.00;74.70
52947;DHT22;68773;40.400;17.260;2023-06-22T12:31:20;32.20;75.80
52947;DHT22;68773;40.400;17.260;2023-06-22T12:33:46;32.40;76.60
52947;DHT22;68773;40.400;17.260;2023-06-22T12:36:12;32.40;75.40
52947;DHT22;68773;40.400;17.260;2023-06-22T12:38:37;32.60;74.60
52947;DHT22;68773;40.400;17.260;2023-06-22T12:41:03;32.70;74.70
52947;DHT22;68773;40.400;17.260;2023-06-22T12:43:29;32.60;73.50
52947;DHT22;68773;40.400;17.260;2023-06-22T12:45:55;32.60;73.80
52947;DHT22;68773;40.400;17.260;2023-06-22T12:48:22;32.70;73.80
52947;DHT22;68773;40.400;17.260;2023-06-22T12:50:47;32.60;73.30
52947;DHT22;68773;40.400;17.260;2023-06-22T12:53:13;32.50;74.10
52947;DHT22;68773;40.400;17.260;2023-06-22T12:55:39;32.60;74.50
52947;DHT22;68773;40.400;17.260;2023-06-22T12:58:05;32.20;74.10
52947;DHT22;68773;40.400;17.260;2023-06-22T13:00:30;32.20;75.00
52947;DHT22;68773;40.400;17.260;2023-06-22T13:02:56;32.10;71.00
52947;DHT22;68773;40.400;17.260;2023-06-22T13:05:22;32.00;72.70
52947;DHT22;68773;40.400;17.260;2023-06-22T13:07:48;31.90;75.70
52947;DHT22;68773;40.400;17.260;2023-06-22T13:10:13;31.50;74.20
52947;DHT22;68773;40.400;17.260;2023-06-22T13:12:39;31.90;75.90
52947;DHT22;68773;40.400;17.260;2023-06-22T13:15:05;32.40;76.10
52947;DHT22;68773;40.400;17.260;2023-06-22T13:17:31;32.30;74.20
52947;DHT22;68773;40.400;17.260;2023-06-22T13:19:57;32.30;74.90
52947;DHT22;68773;40.400;17.260;2023-06-22T13:22:33;32.30;74.40
52947;DHT22;68773;40.400;17.260;2023-06-22T13:25:05;32.20;74.70
52947;DHT22;68773;40.400;17.260;2023-06-22T13:27:31;32.60;73.20
52947;DHT22;68773;40.400;17.260;2023-06-22T13:29:57;32.20;68.70
52947;DHT22;68773;40.400;17.260;2023-06-22T13:32:23;32.70;72.30
52947;DHT22;68773;40.400;17.260;2023-06-22T13:34:49;32.90;73.10
52947;DHT22;68773;40.400;17.260;2023-06-22T13:37:14;33.30;70.60
52947;DHT22;68773;40.400;17.260;2023-06-22T13:39:40;33.50;69.20
52947;DHT22;68773;40.400;17.260;2023-06-22T13:42:06;33.30;68.80
52947;DHT22;68773;40.400;17.260;2023-06-22T13:44:32;33.30;72.40
52947;DHT22;68773;40.400;17.260;2023-06-22T13:46:58;33.00;73.30
52947;DHT22;68773;40.400;17.260;2023-06-22T13:49:24;33.40;73.20
52947;DHT22;68773;40.400;17.260;2023-06-22T13:51:50;33.10;72.70
52947;DHT22;68773;40.400;17.260;2023-06-22T13:54:16;33.30;73.00
52947;DHT22;68773;40.400;17.260;2023-06-22T13:56:42;33.70;72.40
52947;DHT22;68773;40.400;17.260;2023-06-22T13:59:08;33.50;72.90
52947;DHT22;68773;40.400;17.260;2023-06-22T14:01:37;32.40;75.80
52947;DHT22;68773;40.400;17.260;2023-06-22T14:04:05;32.80;75.20
52947;DHT22;68773;40.400;17.260;2023-06-22T14:06:31;32.60;74.60
52947;DHT22;68773;40.400;17.260;2023-06-22T14:08:57;33.30;72.90
52947;DHT22;68773;40.400;17.260;2023-06-22T14:11:22;33.30;71.90
52947;DHT22;68773;40.400;17.260;2023-06-22T14:13:48;33.00;73.00
52947;DHT22;68773;40.400;17.260;2023-06-22T14:16:14;33.20;70.40
52947;DHT22;68773;40.400;17.260;2023-06-22T14:18:39;33.50;69.30
52947;DHT22;68773;40.400;17.260;2023-06-22T14:21:05;33.90;67.30
52947;DHT22;68773;40.400;17.260;2023-06-22T14:23:31;34.10;64.70
52947;DHT22;68773;40.400;17.260;2023-06-22T14:25:57;33.70;63.60
52947;DHT22;68773;40.400;17.260;2023-06-22T14:28:23;33.30;65.40
52947;DHT22;68773;40.400;17.260;2023-06-22T14:30:48;33.30;64.60
52947;DHT22;68773;40.400;17.260;2023-06-22T14:33:14;33.40;63.40
52947;DHT22;68773;40.400;17.260;2023-06-22T14:35:40;33.30;62.80
52947;DHT22;68773;40.400;17.260;2023-06-22T14:38:06;33.30;62.20
52947;DHT22;68773;40.400;17.260;2023-06-22T14:40:32;33.60;60.90
52947;DHT22;68773;40.400;17.260;2023-06-22T14:42:57;33.70;60.90
52947;DHT22;68773;40.400;17.260;2023-06-22T14:45:23;33.50;59.70
52947;DHT22;68773;40.400;17.260;2023-06-22T14:47:49;33.00;59.00
52947;DHT22;68773;40.400;17.260;2023-06-22T14:50:15;33.10;59.50
52947;DHT22;68773;40.400;17.260;2023-06-22T14:52:42;32.60;63.60
52947;DHT22;68773;40.400;17.260;2023-06-22T14:55:08;32.50;63.00
52947;DHT22;68773;40.400;17.260;2023-06-22T14:57:34;33.10;61.40
52947;DHT22;68773;40.400;17.260;2023-06-22T14:59:59;32.90;61.40
52947;DHT22;68773;40.400;17.260;2023-06-22T15:02:27;33.50;59.60
52947;DHT22;68773;40.400;17.260;2023-06-22T15:04:53;33.90;58.70
52947;DHT22;68773;40.400;17.260;2023-06-22T15:07:19;33.70;60.00
52947;DHT22;68773;40.400;17.260;2023-06-22T15:09:46;33.20;61.50
52947;DHT22;68773;40.400;17.260;2023-06-22T15:12:12;33.30;62.40
52947;DHT22;68773;40.400;17.260;2023-06-22T15:14:41;33.80;60.90
52947;DHT22;68773;40.400;17.260;2023-06-22T15:17:07;34.10;61.70
52947;DHT22;68773;40.400;17.260;2023-06-22T15:19:36;34.30;61.30
52947;DHT22;68773;40.400;17.260;2023-06-22T15:22:07;34.50;61.30
52947;DHT22;68773;40.400;17.260;2023-06-22T15:24:33;34.50;59.60
52947;DHT22;68773;40.400;17.260;2023-06-22T15:27:00;34.40;61.00